sensor_id;sensor_type;location;lat;lon;timestamp;P1;durP1;ratioP1;P2;durP2;ratioP2
6937;SDS011;40040;42.706;23.372;2024-03-02T00:01:10;39.13;;;18.43;;
6937;SDS011;40040;42.706;23.372;2024-03-02T00:03:38;33.40;;;15.60;;
6937;SDS011;40040;42.706;23.372;2024-03-02T00:06:06;33.63;;;15.63;;
6937;SDS011;40040;42.706;23.372;2024-03-02T00:08:33;25.53;;;13.13;;
6937;SDS011;40040;42.706;23.372;2024-03-02T00:11:01;31.80;;;15.20;;
6937;SDS011;40040;42.706;23.372;2024-03-02T00:13:29;27.70;;;14.43;;
6937;SDS011;40040;42.706;23.372;2024-03-02T00:15:57;30.77;;;15.10;;
6937;SDS011;40040;42.706;23.372;2024-03-02T00:18:25;31.90;;;14.87;;
6937;SDS011;40040;42.706;23.372;2024-03-02T00:20:54;29.58;;;14.63;;
6937;SDS011;40040;42.706;23.372;2024-03-02T00:23:22;32.55;;;15.55;;
6937;SDS011;40040;42.706;23.372;2024-03-02T00:25:50;31.45;;;15.73;;
6937;SDS011;40040;42.706;23.372;2024-03-02T00:28:20;32.03;;;15.93;;
6937;SDS011;40040;42.706;23.372;2024-03-02T00:30:58;31.02;;;16.15;;
6937;SDS011;40040;42.706;23.372;2024-03-02T00:33:30;29.77;;;15.38;;
6937;SDS011;40040;42.706;23.372;2024-03-02T00:35:59;32.37;;;15.97;;
6937;SDS011;40040;42.706;23.372;2024-03-02T00:38:27;29.45;;;14.90;;
6937;SDS011;40040;42.706;23.372;2024-03-02T00:40:54;32.35;;;15.90;;
6937;SDS011;40040;42.706;23.372;2024-03-02T00:46:11;33.25;;;15.57;;
6937;SDS011;40040;42.706;23.372;2024-03-02T00:48:38;30.00;;;16.05;;
6937;SDS011;40040;42.706;23.372;2024-03-02T00:51:07;31.17;;;15.02;;
6937;SDS011;40040;42.706;23.372;2024-03-02T00:53:34;36.77;;;19.27;;
6937;SDS011;40040;42.706;23.372;2024-03-02T00:56:01;40.50;;;20.42;;
6937;SDS011;40040;42.706;23.372;2024-03-02T00:58:28;40.17;;;17.15;;
6937;SDS011;40040;42.706;23.372;2024-03-02T01:00:55;34.20;;;16.98;;
6937;SDS011;40040;42.706;23.372;2024-03-02T01:03:21;33.58;;;16.35;;
6937;SDS011;40040;42.706;23.372;2024-03-02T01:05:49;35.72;;;17.02;;
6937;SDS011;40040;42.706;23.372;2024-03-02T01:08:17;33.08;;;16.65;;
6937;SDS011;40040;42.706;23.372;2024-03-02T01:10:44;35.55;;;17.23;;
6937;SDS011;40040;42.706;23.372;2024-03-02T01:13:11;36.17;;;17.90;;
6937;SDS011;40040;42.706;23.372;2024-03-02T01:15:38;39.03;;;17.50;;
6937;SDS011;40040;42.706;23.372;2024-03-02T01:18:05;36.78;;;17.15;;
6937;SDS011;40040;42.706;23.372;2024-03-02T01:20:32;35.10;;;16.95;;
6937;SDS011;40040;42.706;23.372;2024-03-02T01:22:58;37.80;;;17.15;;
6937;SDS011;40040;42.706;23.372;2024-03-02T01:25:26;30.63;;;16.27;;
6937;SDS011;40040;42.706;23.372;2024-03-02T01:27:53;33.33;;;16.05;;
6937;SDS011;40040;42.706;23.372;2024-03-02T01:30:20;33.70;;;17.20;;
6937;SDS011;40040;42.706;23.372;2024-03-02T01:32:46;31.80;;;16.65;;
6937;SDS011;40040;42.706;23.372;2024-03-02T01:35:13;29.63;;;15.95;;
6937;SDS011;40040;42.706;23.372;2024-03-02T01:37:41;31.88;;;15.80;;
6937;SDS011;40040;42.706;23.372;2024-03-02T01:40:08;28.92;;;16.20;;
6937;SDS011;40040;42.706;23.372;2024-03-02T01:42:37;29.95;;;15.27;;
6937;SDS011;40040;42.706;23.372;2024-03-02T01:45:05;31.73;;;15.95;;
6937;SDS011;40040;42.706;23.372;2024-03-02T01:47:33;32.53;;;15.15;;
6937;SDS011;40040;42.706;23.372;2024-03-02T01:50:00;30.48;;;15.45;;
6937;SDS011;40040;42.706;23.372;2024-03-02T01:52:27;30.65;;;16.25;;
6937;SDS011;40040;42.706;23.372;2024-03-02T01:54:54;29.20;;;15.82;;
6937;SDS011;40040;42.706;23.372;2024-03-02T01:57:21;31.95;;;16.02;;
6937;SDS011;40040;42.706;23.372;2024-03-02T01:59:49;31.58;;;15.95;;
6937;SDS011;40040;42.706;23.372;2024-03-02T02:02:17;28.35;;;16.10;;
6937;SDS011;40040;42.706;23.372;2024-03-02T02:04:44;31.00;;;16.42;;
6937;SDS011;40040;42.706;23.372;2024-03-02T02:07:10;31.08;;;16.23;;
6937;SDS011;40040;42.706;23.372;2024-03-02T02:09:39;33.85;;;16.13;;
6937;SDS011;40040;42.706;23.372;2024-03-02T02:12:06;32.60;;;16.02;;
6937;SDS011;40040;42.706;23.372;2024-03-02T02:14:33;32.17;;;16.42;;
6937;SDS011;40040;42.706;23.372;2024-03-02T02:17:01;29.52;;;15.60;;
6937;SDS011;40040;42.706;23.372;2024-03-02T02:19:28;33.25;;;16.50;;
6937;SDS011;40040;42.706;23.372;2024-03-02T02:21:57;32.47;;;17.25;;
6937;SDS011;40040;42.706;23.372;2024-03-02T02:24:23;31.65;;;16.45;;
6937;SDS011;40040;42.706;23.372;2024-03-02T02:26:50;29.73;;;16.60;;
6937;SDS011;40040;42.706;23.372;2024-03-02T02:29:17;35.08;;;17.02;;
6937;SDS011;40040;42.706;23.372;2024-03-02T02:31:44;33.95;;;16.83;;
6937;SDS011;40040;42.706;23.372;2024-03-02T02:34:10;34.17;;;17.10;;
6937;SDS011;40040;42.706;23.372;2024-03-02T02:36:37;36.15;;;17.20;;
6937;SDS011;40040;42.706;23.372;2024-03-02T02:39:07;41.15;;;17.42;;
6937;SDS011;40040;42.706;23.372;2024-03-02T02:41:37;36.00;;;16.92;;
6937;SDS011;40040;42.706;23.372;2024-03-02T02:44:04;30.30;;;16.33;;
6937;SDS011;40040;42.706;23.372;2024-03-02T02:46:31;30.83;;;15.82;;
6937;SDS011;40040;42.706;23.372;2024-03-02T02:48:58;31.67;;;16.27;;
6937;SDS011;40040;42.706;23.372;2024-03-02T02:51:24;36.83;;;17.58;;
6937;SDS011;40040;42.706;23.372;2024-03-02T02:53:51;39.38;;;18.20;;
6937;SDS011;40040;42.706;23.372;2024-03-02T02:56:19;34.25;;;17.35;;
6937;SDS011;40040;42.706;23.372;2024-03-02T02:58:46;33.10;;;17.60;;
6937;SDS011;40040;42.706;23.372;2024-03-02T03:01:13;36.80;;;17.25;;
6937;SDS011;40040;42.706;23.372;2024-03-02T03:03:42;32.20;;;16.20;;
6937;SDS011;40040;42.706;23.372;2024-03-02T03:06:09;32.00;;;16.17;;
6937;SDS011;40040;42.706;23.372;2024-03-02T03:08:35;33.87;;;16.20;;
6937;SDS011;40040;42.706;23.372;2024-03-02T03:11:02;31.03;;;16.23;;
6937;SDS011;40040;42.706;23.372;2024-03-02T03:13:31;36.00;;;16.35;;
6937;SDS011;40040;42.706;23.372;2024-03-02T03:15:58;34.75;;;15.63;;
6937;SDS011;40040;42.706;23.372;2024-03-02T03:18:24;31.10;;;14.80;;
6937;SDS011;40040;42.706;23.372;2024-03-02T03:20:51;29.67;;;15.63;;
6937;SDS011;40040;42.706;23.372;2024-03-02T03:23:18;32.08;;;16.10;;
6937;SDS011;40040;42.706;23.372;2024-03-02T03:25:46;29.52;;;15.80;;
6937;SDS011;40040;42.706;23.372;2024-03-02T03:28:12;32.22;;;16.50;;
6937;SDS011;40040;42.706;23.372;2024-03-02T03:30:40;31.83;;;15.80;;
6937;SDS011;40040;42.706;23.372;2024-03-02T03:33:08;29.67;;;15.65;;
6937;SDS011;40040;42.706;23.372;2024-03-02T03:35:35;29.30;;;16.02;;
6937;SDS011;40040;42.706;23.372;2024-03-02T03:38:03;33.08;;;16.52;;
6937;SDS011;40040;42.706;23.372;2024-03-02T03:40:30;31.50;;;15.82;;
6937;SDS011;40040;42.706;23.372;2024-03-02T03:42:57;33.65;;;15.90;;
6937;SDS011;40040;42.706;23.372;2024-03-02T03:45:25;32.78;;;16.42;;
6937;SDS011;40040;42.706;23.372;2024-03-02T03:47:53;31.35;;;16.15;;
6937;SDS011;40040;42.706;23.372;2024-03-02T03:50:20;39.28;;;19.80;;
6937;SDS011;40040;42.706;23.372;2024-03-02T03:52:47;33.55;;;17.73;;
6937;SDS011;40040;42.706;23.372;2024-03-02T03:55:14;33.67;;;17.13;;
6937;SDS011;40040;42.706;23.372;2024-03-02T03:57:41;31.65;;;16.38;;
6937;SDS011;40040;42.706;23.372;2024-03-02T04:00:08;35.00;;;15.38;;
6937;SDS011;40040;42.706;23.372;2024-03-02T04:02:36;31.65;;;16.05;;
6937;SDS011;40040;42.706;23.372;2024-03-02T04:05:05;34.38;;;16.77;;
6937;SDS011;40040;42.706;23.372;2024-03-02T04:07:34;36.53;;;17.00;;
6937;SDS011;40040;42.706;23.372;2024-03-02T04:10:06;32.10;;;16.20;;
6937;SDS011;40040;42.706;23.372;2024-03-02T04:12:34;38.88;;;19.08;;
6937;SDS011;40040;42.706;23.372;2024-03-02T04:15:02;33.17;;;18.13;;
6937;SDS011;40040;42.706;23.372;2024-03-02T04:17:31;40.60;;;20.07;;
6937;SDS011;40040;42.706;23.372;2024-03-02T04:19:59;36.43;;;18.90;;
6937;SDS011;40040;42.706;23.372;2024-03-02T04:22:27;38.35;;;17.75;;
6937;SDS011;40040;42.706;23.372;2024-03-02T04:24:54;35.47;;;16.27;;
6937;SDS011;40040;42.706;23.372;2024-03-02T04:27:21;36.33;;;16.80;;
6937;SDS011;40040;42.706;23.372;2024-03-02T04:29:48;29.93;;;15.50;;
6937;SDS011;40040;42.706;23.372;2024-03-02T04:32:15;33.10;;;16.50;;
6937;SDS011;40040;42.706;23.372;2024-03-02T04:34:42;33.92;;;16.20;;
6937;SDS011;40040;42.706;23.372;2024-03-02T04:37:10;34.97;;;16.23;;
6937;SDS011;40040;42.706;23.372;2024-03-02T04:39:40;34.40;;;16.27;;
6937;SDS011;40040;42.706;23.372;2024-03-02T04:42:07;32.87;;;15.83;;
6937;SDS011;40040;42.706;23.372;2024-03-02T04:44:34;36.65;;;16.10;;
6937;SDS011;40040;42.706;23.372;2024-03-02T04:47:02;38.05;;;16.02;;
6937;SDS011;40040;42.706;23.372;2024-03-02T04:49:29;35.67;;;15.82;;
6937;SDS011;40040;42.706;23.372;2024-03-02T04:51:56;33.87;;;16.57;;
6937;SDS011;40040;42.706;23.372;2024-03-02T04:54:23;39.63;;;17.48;;
6937;SDS011;40040;42.706;23.372;2024-03-02T04:56:51;42.67;;;19.30;;
6937;SDS011;40040;42.706;23.372;2024-03-02T04:59:18;37.50;;;17.47;;
6937;SDS011;40040;42.706;23.372;2024-03-02T05:01:45;38.77;;;16.83;;
6937;SDS011;40040;42.706;23.372;2024-03-02T05:04:12;39.23;;;16.43;;
6937;SDS011;40040;42.706;23.372;2024-03-02T05:06:39;38.70;;;16.23;;
6937;SDS011;40040;42.706;23.372;2024-03-02T05:09:06;33.28;;;16.67;;
6937;SDS011;40040;42.706;23.372;2024-03-02T05:11:33;36.60;;;16.70;;
6937;SDS011;40040;42.706;23.372;2024-03-02T05:14:25;36.93;;;16.43;;
6937;SDS011;40040;42.706;23.372;2024-03-02T05:16:52;38.40;;;16.07;;
6937;SDS011;40040;42.706;23.372;2024-03-02T05:19:19;38.70;;;16.67;;
6937;SDS011;40040;42.706;23.372;2024-03-02T05:21:46;34.67;;;16.33;;
6937;SDS011;40040;42.706;23.372;2024-03-02T05:24:13;41.25;;;17.65;;
6937;SDS011;40040;42.706;23.372;2024-03-02T05:26:40;39.80;;;17.60;;
6937;SDS011;40040;42.706;23.372;2024-03-02T05:29:07;39.90;;;17.93;;
6937;SDS011;40040;42.706;23.372;2024-03-02T05:31:34;39.30;;;17.83;;
6937;SDS011;40040;42.706;23.372;2024-03-02T05:34:01;40.40;;;17.13;;
6937;SDS011;40040;42.706;23.372;2024-03-02T05:36:28;41.07;;;17.17;;
6937;SDS011;40040;42.706;23.372;2024-03-02T05:38:54;38.10;;;17.03;;
6937;SDS011;40040;42.706;23.372;2024-03-02T05:41:21;38.23;;;16.73;;
6937;SDS011;40040;42.706;23.372;2024-03-02T05:43:48;34.55;;;17.15;;
6937;SDS011;40040;42.706;23.372;2024-03-02T05:46:15;39.83;;;17.53;;
6937;SDS011;40040;42.706;23.372;2024-03-02T05:48:43;44.93;;;17.73;;
6937;SDS011;40040;42.706;23.372;2024-03-02T05:51:10;36.05;;;16.98;;
6937;SDS011;40040;42.706;23.372;2024-03-02T05:53:37;44.63;;;18.23;;
6937;SDS011;40040;42.706;23.372;2024-03-02T05:56:04;37.13;;;16.83;;
6937;SDS011;40040;42.706;23.372;2024-03-02T05:58:31;38.07;;;17.73;;
6937;SDS011;40040;42.706;23.372;2024-03-02T06:01:11;35.97;;;16.98;;
6937;SDS011;40040;42.706;23.372;2024-03-02T06:03:38;39.43;;;17.73;;
6937;SDS011;40040;42.706;23.372;2024-03-02T06:06:06;40.80;;;16.70;;
6937;SDS011;40040;42.706;23.372;2024-03-02T06:08:33;41.50;;;17.53;;
6937;SDS011;40040;42.706;23.372;2024-03-02T06:11:00;38.23;;;17.00;;
6937;SDS011;40040;42.706;23.372;2024-03-02T06:13:27;39.38;;;17.63;;
6937;SDS011;40040;42.706;23.372;2024-03-02T06:15:53;40.83;;;18.53;;
6937;SDS011;40040;42.706;23.372;2024-03-02T06:18:20;41.28;;;17.85;;
6937;SDS011;40040;42.706;23.372;2024-03-02T06:20:47;40.73;;;17.33;;
6937;SDS011;40040;42.706;23.372;2024-03-02T06:23:15;40.70;;;17.05;;
6937;SDS011;40040;42.706;23.372;2024-03-02T06:25:42;39.40;;;16.85;;
6937;SDS011;40040;42.706;23.372;2024-03-02T06:28:09;71.20;;;31.80;;
6937;SDS011;40040;42.706;23.372;2024-03-02T06:30:35;49.27;;;21.63;;
6937;SDS011;40040;42.706;23.372;2024-03-02T06:33:02;39.43;;;18.50;;
6937;SDS011;40040;42.706;23.372;2024-03-02T06:35:31;45.08;;;19.20;;
6937;SDS011;40040;42.706;23.372;2024-03-02T06:37:57;42.87;;;18.13;;
6937;SDS011;40040;42.706;23.372;2024-03-02T06:40:26;40.67;;;18.53;;
6937;SDS011;40040;42.706;23.372;2024-03-02T06:42:52;39.35;;;18.13;;
6937;SDS011;40040;42.706;23.372;2024-03-02T06:45:19;45.07;;;18.17;;
6937;SDS011;40040;42.706;23.372;2024-03-02T06:47:46;45.00;;;19.73;;
6937;SDS011;40040;42.706;23.372;2024-03-02T06:50:13;48.87;;;20.27;;
6937;SDS011;40040;42.706;23.372;2024-03-02T06:52:40;42.43;;;18.27;;
6937;SDS011;40040;42.706;23.372;2024-03-02T06:55:07;41.63;;;19.97;;
6937;SDS011;40040;42.706;23.372;2024-03-02T06:57:35;44.75;;;18.45;;
6937;SDS011;40040;42.706;23.372;2024-03-02T07:00:02;44.83;;;19.77;;
6937;SDS011;40040;42.706;23.372;2024-03-02T07:02:30;47.13;;;20.13;;
6937;SDS011;40040;42.706;23.372;2024-03-02T07:04:57;42.73;;;19.97;;
6937;SDS011;40040;42.706;23.372;2024-03-02T07:07:24;37.33;;;18.67;;
6937;SDS011;40040;42.706;23.372;2024-03-02T07:09:51;45.83;;;19.53;;
6937;SDS011;40040;42.706;23.372;2024-03-02T07:12:17;35.70;;;17.73;;
6937;SDS011;40040;42.706;23.372;2024-03-02T07:14:45;39.77;;;17.27;;
6937;SDS011;40040;42.706;23.372;2024-03-02T07:17:30;42.90;;;18.30;;
6937;SDS011;40040;42.706;23.372;2024-03-02T07:19:57;43.23;;;17.67;;
6937;SDS011;40040;42.706;23.372;2024-03-02T07:22:24;40.10;;;18.33;;
6937;SDS011;40040;42.706;23.372;2024-03-02T07:24:51;46.67;;;21.27;;
6937;SDS011;40040;42.706;23.372;2024-03-02T07:27:17;37.60;;;17.03;;
6937;SDS011;40040;42.706;23.372;2024-03-02T07:29:46;41.63;;;19.43;;
6937;SDS011;40040;42.706;23.372;2024-03-02T07:32:12;39.00;;;18.83;;
6937;SDS011;40040;42.706;23.372;2024-03-02T07:34:39;38.63;;;17.77;;
6937;SDS011;40040;42.706;23.372;2024-03-02T07:37:06;39.50;;;18.63;;
6937;SDS011;40040;42.706;23.372;2024-03-02T07:39:32;35.05;;;17.33;;
6937;SDS011;40040;42.706;23.372;2024-03-02T07:41:59;41.13;;;17.37;;
6937;SDS011;40040;42.706;23.372;2024-03-02T07:44:26;38.70;;;17.03;;
6937;SDS011;40040;42.706;23.372;2024-03-02T07:46:54;36.27;;;16.63;;
6937;SDS011;40040;42.706;23.372;2024-03-02T07:49:21;40.43;;;17.87;;
6937;SDS011;40040;42.706;23.372;2024-03-02T07:51:48;40.93;;;17.23;;
6937;SDS011;40040;42.706;23.372;2024-03-02T07:54:15;40.63;;;18.37;;
6937;SDS011;40040;42.706;23.372;2024-03-02T07:56:41;40.60;;;19.13;;
6937;SDS011;40040;42.706;23.372;2024-03-02T07:59:08;41.97;;;18.90;;
6937;SDS011;40040;42.706;23.372;2024-03-02T08:01:35;43.27;;;19.57;;
6937;SDS011;40040;42.706;23.372;2024-03-02T08:04:03;46.80;;;19.60;;
6937;SDS011;40040;42.706;23.372;2024-03-02T08:06:30;40.87;;;19.03;;
6937;SDS011;40040;42.706;23.372;2024-03-02T08:08:58;39.13;;;19.57;;
6937;SDS011;40040;42.706;23.372;2024-03-02T08:11:26;39.67;;;17.43;;
6937;SDS011;40040;42.706;23.372;2024-03-02T08:13:54;38.10;;;18.60;;
6937;SDS011;40040;42.706;23.372;2024-03-02T08:16:21;41.92;;;19.77;;
6937;SDS011;40040;42.706;23.372;2024-03-02T08:18:49;38.83;;;19.05;;
6937;SDS011;40040;42.706;23.372;2024-03-02T08:21:18;40.93;;;18.97;;
6937;SDS011;40040;42.706;23.372;2024-03-02T08:23:45;46.10;;;19.40;;
6937;SDS011;40040;42.706;23.372;2024-03-02T08:26:12;41.05;;;19.65;;
6937;SDS011;40040;42.706;23.372;2024-03-02T08:28:38;41.03;;;19.33;;
6937;SDS011;40040;42.706;23.372;2024-03-02T08:31:05;33.40;;;17.60;;
6937;SDS011;40040;42.706;23.372;2024-03-02T08:33:32;36.50;;;17.57;;
6937;SDS011;40040;42.706;23.372;2024-03-02T08:35:59;41.22;;;18.00;;
6937;SDS011;40040;42.706;23.372;2024-03-02T08:38:28;37.60;;;17.87;;
6937;SDS011;40040;42.706;23.372;2024-03-02T08:40:54;39.53;;;17.10;;
6937;SDS011;40040;42.706;23.372;2024-03-02T08:43:21;35.88;;;18.52;;
6937;SDS011;40040;42.706;23.372;2024-03-02T08:45:48;43.88;;;19.08;;
6937;SDS011;40040;42.706;23.372;2024-03-02T08:48:16;39.58;;;19.48;;
6937;SDS011;40040;42.706;23.372;2024-03-02T08:50:43;52.30;;;23.07;;
6937;SDS011;40040;42.706;23.372;2024-03-02T08:53:10;41.88;;;19.77;;
6937;SDS011;40040;42.706;23.372;2024-03-02T08:55:38;43.15;;;19.02;;
6937;SDS011;40040;42.706;23.372;2024-03-02T08:58:04;44.95;;;19.48;;
6937;SDS011;40040;42.706;23.372;2024-03-02T09:00:32;39.03;;;19.15;;
6937;SDS011;40040;42.706;23.372;2024-03-02T09:02:59;37.33;;;19.00;;
6937;SDS011;40040;42.706;23.372;2024-03-02T09:05:25;37.33;;;18.35;;
6937;SDS011;40040;42.706;23.372;2024-03-02T09:07:52;38.15;;;18.30;;
6937;SDS011;40040;42.706;23.372;2024-03-02T09:10:19;37.25;;;17.85;;
6937;SDS011;40040;42.706;23.372;2024-03-02T09:12:47;39.97;;;18.15;;
6937;SDS011;40040;42.706;23.372;2024-03-02T09:15:14;38.70;;;18.45;;
6937;SDS011;40040;42.706;23.372;2024-03-02T09:17:42;40.05;;;18.20;;
6937;SDS011;40040;42.706;23.372;2024-03-02T09:20:09;36.72;;;16.80;;
6937;SDS011;40040;42.706;23.372;2024-03-02T09:22:36;30.20;;;16.33;;
6937;SDS011;40040;42.706;23.372;2024-03-02T09:25:03;37.85;;;17.40;;
6937;SDS011;40040;42.706;23.372;2024-03-02T09:27:32;35.67;;;17.98;;
6937;SDS011;40040;42.706;23.372;2024-03-02T09:30:00;35.80;;;17.20;;
6937;SDS011;40040;42.706;23.372;2024-03-02T09:32:27;35.72;;;16.75;;
6937;SDS011;40040;42.706;23.372;2024-03-02T09:34:53;39.60;;;18.00;;
6937;SDS011;40040;42.706;23.372;2024-03-02T09:37:21;37.40;;;16.88;;
6937;SDS011;40040;42.706;23.372;2024-03-02T09:39:47;36.45;;;17.90;;
6937;SDS011;40040;42.706;23.372;2024-03-02T09:42:17;30.02;;;16.00;;
6937;SDS011;40040;42.706;23.372;2024-03-02T09:44:44;37.50;;;17.35;;
6937;SDS011;40040;42.706;23.372;2024-03-02T09:47:12;31.58;;;16.42;;
6937;SDS011;40040;42.706;23.372;2024-03-02T09:49:39;30.58;;;16.05;;
6937;SDS011;40040;42.706;23.372;2024-03-02T09:52:08;35.88;;;17.38;;
6937;SDS011;40040;42.706;23.372;2024-03-02T09:54:36;36.15;;;18.30;;
6937;SDS011;40040;42.706;23.372;2024-03-02T09:57:03;31.27;;;16.23;;
6937;SDS011;40040;42.706;23.372;2024-03-02T09:59:30;30.98;;;15.77;;
6937;SDS011;40040;42.706;23.372;2024-03-02T10:01:58;34.83;;;18.75;;
6937;SDS011;40040;42.706;23.372;2024-03-02T10:04:27;43.00;;;21.25;;
6937;SDS011;40040;42.706;23.372;2024-03-02T10:07:14;38.88;;;18.58;;
6937;SDS011;40040;42.706;23.372;2024-03-02T10:09:42;41.75;;;18.60;;
6937;SDS011;40040;42.706;23.372;2024-03-02T10:12:11;36.15;;;17.25;;
6937;SDS011;40040;42.706;23.372;2024-03-02T10:14:38;34.85;;;17.08;;
6937;SDS011;40040;42.706;23.372;2024-03-02T10:17:06;32.58;;;15.45;;
6937;SDS011;40040;42.706;23.372;2024-03-02T10:19:35;33.65;;;16.08;;
6937;SDS011;40040;42.706;23.372;2024-03-02T10:22:03;33.22;;;16.90;;
6937;SDS011;40040;42.706;23.372;2024-03-02T10:24:34;27.50;;;14.63;;
6937;SDS011;40040;42.706;23.372;2024-03-02T10:27:06;27.42;;;14.52;;
6937;SDS011;40040;42.706;23.372;2024-03-02T10:29:36;26.92;;;14.13;;
6937;SDS011;40040;42.706;23.372;2024-03-02T10:32:04;27.25;;;13.38;;
6937;SDS011;40040;42.706;23.372;2024-03-02T10:34:32;24.58;;;13.63;;
6937;SDS011;40040;42.706;23.372;2024-03-02T10:37:00;25.02;;;13.45;;
6937;SDS011;40040;42.706;23.372;2024-03-02T10:39:27;29.75;;;16.50;;
6937;SDS011;40040;42.706;23.372;2024-03-02T10:41:56;26.67;;;14.43;;
6937;SDS011;40040;42.706;23.372;2024-03-02T10:44:24;30.70;;;15.65;;
6937;SDS011;40040;42.706;23.372;2024-03-02T10:46:52;27.85;;;14.38;;
6937;SDS011;40040;42.706;23.372;2024-03-02T10:49:22;29.45;;;16.00;;
6937;SDS011;40040;42.706;23.372;2024-03-02T10:51:50;24.80;;;13.77;;
6937;SDS011;40040;42.706;23.372;2024-03-02T10:54:18;24.02;;;12.68;;
6937;SDS011;40040;42.706;23.372;2024-03-02T10:56:51;30.00;;;16.00;;
6937;SDS011;40040;42.706;23.372;2024-03-02T10:59:22;29.50;;;14.30;;
6937;SDS011;40040;42.706;23.372;2024-03-02T11:01:54;25.25;;;13.38;;
6937;SDS011;40040;42.706;23.372;2024-03-02T11:04:22;28.42;;;14.15;;
6937;SDS011;40040;42.706;23.372;2024-03-02T11:06:51;26.60;;;14.30;;
6937;SDS011;40040;42.706;23.372;2024-03-02T11:09:21;25.80;;;13.40;;
6937;SDS011;40040;42.706;23.372;2024-03-02T11:11:54;23.90;;;13.18;;
6937;SDS011;40040;42.706;23.372;2024-03-02T11:14:27;30.63;;;15.15;;
6937;SDS011;40040;42.706;23.372;2024-03-02T11:16:57;30.67;;;14.40;;
6937;SDS011;40040;42.706;23.372;2024-03-02T11:19:25;28.15;;;14.68;;
6937;SDS011;40040;42.706;23.372;2024-03-02T11:21:52;25.20;;;14.77;;
6937;SDS011;40040;42.706;23.372;2024-03-02T11:24:31;24.25;;;14.32;;
6937;SDS011;40040;42.706;23.372;2024-03-02T11:27:02;25.45;;;13.30;;
6937;SDS011;40040;42.706;23.372;2024-03-02T11:29:42;28.38;;;13.68;;
6937;SDS011;40040;42.706;23.372;2024-03-02T11:32:13;27.90;;;14.07;;
6937;SDS011;40040;42.706;23.372;2024-03-02T11:34:45;23.67;;;12.40;;
6937;SDS011;40040;42.706;23.372;2024-03-02T11:37:13;23.80;;;13.00;;
6937;SDS011;40040;42.706;23.372;2024-03-02T11:39:42;27.63;;;13.45;;
6937;SDS011;40040;42.706;23.372;2024-03-02T11:42:10;28.17;;;14.30;;
6937;SDS011;40040;42.706;23.372;2024-03-02T11:44:39;27.67;;;15.15;;
6937;SDS011;40040;42.706;23.372;2024-03-02T11:47:09;29.38;;;14.93;;
6937;SDS011;40040;42.706;23.372;2024-03-02T11:49:39;26.88;;;15.02;;
6937;SDS011;40040;42.706;23.372;2024-03-02T11:52:08;29.67;;;14.75;;
6937;SDS011;40040;42.706;23.372;2024-03-02T11:54:36;21.10;;;11.73;;
6937;SDS011;40040;42.706;23.372;2024-03-02T11:57:07;21.25;;;11.40;;
6937;SDS011;40040;42.706;23.372;2024-03-02T11:59:34;23.45;;;13.38;;
6937;SDS011;40040;42.706;23.372;2024-03-02T12:02:01;28.88;;;13.90;;
6937;SDS011;40040;42.706;23.372;2024-03-02T12:04:28;28.42;;;14.98;;
6937;SDS011;40040;42.706;23.372;2024-03-02T12:06:56;23.40;;;13.70;;
6937;SDS011;40040;42.706;23.372;2024-03-02T12:09:25;24.83;;;13.48;;
6937;SDS011;40040;42.706;23.372;2024-03-02T12:12:01;21.58;;;12.27;;
6937;SDS011;40040;42.706;23.372;2024-03-02T12:14:30;23.52;;;12.80;;
6937;SDS011;40040;42.706;23.372;2024-03-02T12:16:57;20.70;;;11.50;;
6937;SDS011;40040;42.706;23.372;2024-03-02T12:19:24;20.35;;;11.63;;
6937;SDS011;40040;42.706;23.372;2024-03-02T12:21:51;24.42;;;13.70;;
6937;SDS011;40040;42.706;23.372;2024-03-02T12:24:20;30.67;;;16.05;;
6937;SDS011;40040;42.706;23.372;2024-03-02T12:26:47;24.15;;;12.88;;
6937;SDS011;40040;42.706;23.372;2024-03-02T12:29:15;21.42;;;12.18;;
6937;SDS011;40040;42.706;23.372;2024-03-02T12:31:43;17.58;;;10.93;;
6937;SDS011;40040;42.706;23.372;2024-03-02T12:34:11;21.95;;;13.82;;
6937;SDS011;40040;42.706;23.372;2024-03-02T12:36:39;27.30;;;14.75;;
6937;SDS011;40040;42.706;23.372;2024-03-02T12:39:07;18.95;;;11.88;;
6937;SDS011;40040;42.706;23.372;2024-03-02T12:41:35;16.77;;;10.23;;
6937;SDS011;40040;42.706;23.372;2024-03-02T12:44:02;16.77;;;10.50;;
6937;SDS011;40040;42.706;23.372;2024-03-02T12:46:30;17.95;;;11.73;;
6937;SDS011;40040;42.706;23.372;2024-03-02T12:48:58;19.92;;;11.70;;
6937;SDS011;40040;42.706;23.372;2024-03-02T12:51:26;22.30;;;12.00;;
6937;SDS011;40040;42.706;23.372;2024-03-02T12:53:54;20.67;;;11.50;;
6937;SDS011;40040;42.706;23.372;2024-03-02T12:56:21;19.23;;;11.38;;
6937;SDS011;40040;42.706;23.372;2024-03-02T12:58:48;20.35;;;11.88;;
6937;SDS011;40040;42.706;23.372;2024-03-02T13:01:20;20.00;;;11.50;;
6937;SDS011;40040;42.706;23.372;2024-03-02T13:03:48;22.35;;;12.48;;
6937;SDS011;40040;42.706;23.372;2024-03-02T13:06:17;21.13;;;13.50;;
6937;SDS011;40040;42.706;23.372;2024-03-02T13:08:45;30.88;;;15.88;;
6937;SDS011;40040;42.706;23.372;2024-03-02T13:11:12;27.48;;;15.13;;
6937;SDS011;40040;42.706;23.372;2024-03-02T13:13:39;27.05;;;15.63;;
6937;SDS011;40040;42.706;23.372;2024-03-02T13:16:07;19.17;;;10.70;;
6937;SDS011;40040;42.706;23.372;2024-03-02T13:18:35;16.77;;;11.00;;
6937;SDS011;40040;42.706;23.372;2024-03-02T13:21:01;18.95;;;11.52;;
6937;SDS011;40040;42.706;23.372;2024-03-02T13:23:30;27.63;;;13.18;;
6937;SDS011;40040;42.706;23.372;2024-03-02T13:25:57;18.65;;;11.40;;
6937;SDS011;40040;42.706;23.372;2024-03-02T13:28:24;19.08;;;11.63;;
6937;SDS011;40040;42.706;23.372;2024-03-02T13:30:51;19.60;;;10.95;;
6937;SDS011;40040;42.706;23.372;2024-03-02T13:33:18;21.52;;;11.88;;
6937;SDS011;40040;42.706;23.372;2024-03-02T13:35:47;21.23;;;12.32;;
6937;SDS011;40040;42.706;23.372;2024-03-02T13:38:15;21.25;;;12.23;;
6937;SDS011;40040;42.706;23.372;2024-03-02T13:40:43;23.10;;;13.02;;
6937;SDS011;40040;42.706;23.372;2024-03-02T13:43:10;21.73;;;12.35;;
6937;SDS011;40040;42.706;23.372;2024-03-02T13:45:37;20.70;;;12.82;;
6937;SDS011;40040;42.706;23.372;2024-03-02T13:48:04;25.80;;;15.20;;
6937;SDS011;40040;42.706;23.372;2024-03-02T13:50:31;24.90;;;14.23;;
6937;SDS011;40040;42.706;23.372;2024-03-02T13:52:58;69.20;;;28.40;;
6937;SDS011;40040;42.706;23.372;2024-03-02T13:55:25;30.60;;;16.95;;
6937;SDS011;40040;42.706;23.372;2024-03-02T13:57:53;33.25;;;18.40;;
6937;SDS011;40040;42.706;23.372;2024-03-02T14:00:20;34.80;;;17.83;;
6937;SDS011;40040;42.706;23.372;2024-03-02T14:02:47;22.52;;;13.07;;
6937;SDS011;40040;42.706;23.372;2024-03-02T14:05:15;30.48;;;17.20;;
6937;SDS011;40040;42.706;23.372;2024-03-02T14:07:42;20.85;;;12.80;;
6937;SDS011;40040;42.706;23.372;2024-03-02T14:10:10;21.15;;;12.10;;
6937;SDS011;40040;42.706;23.372;2024-03-02T14:12:36;19.83;;;11.55;;
6937;SDS011;40040;42.706;23.372;2024-03-02T14:15:05;19.23;;;11.77;;
6937;SDS011;40040;42.706;23.372;2024-03-02T14:17:33;20.30;;;10.98;;
6937;SDS011;40040;42.706;23.372;2024-03-02T14:20:00;19.73;;;11.10;;
6937;SDS011;40040;42.706;23.372;2024-03-02T14:22:27;19.90;;;11.52;;
6937;SDS011;40040;42.706;23.372;2024-03-02T14:24:53;19.13;;;11.20;;
6937;SDS011;40040;42.706;23.372;2024-03-02T14:27:20;20.65;;;11.10;;